Time;durP1;ratioP1;P1;durP2;ratioP2;P2;SDS_P1;SDS_P2;PMS_P1;PMS_P2;Temp;Humidity;BMP_temperature;BMP_pressure;BME280_temperature;BME280_humidity;BME280_pressure;Samples;Min_cycle;Max_cycle;Signal;HPM_P1;HPM_P2
2023/01/13 07:16:05;;;;;;;0.40;0.35;;;;;;;8.88;93.81;98457.44;5109958;28;20097;-82
2023/01/13 07:18:33;;;;;;;1.75;0.82;;;;;;;9.01;94.60;98471.16;5093092;28;20040;-82
2023/01/13 07:21:01;;;;;;;0.88;0.50;;;;;;;9.09;92.99;98465.59;5088976;28;20563;-82
2023/01/13 07:23:29;;;;;;;0.22;0.20;;;;;;;9.14;92.95;98465.88;5098706;28;20047;-83
2023/01/13 07:28:41;;;;;;;1.73;0.35;;;;;;;9.09;94.50;98467.47;5108695;28;20539;-83
2023/01/13 07:31:14;;;;;;;1.05;0.80;;;;;;;9.15;93.93;98477.53;5108235;27;20055;-83
2023/01/13 07:33:41;;;;;;;1.15;0.52;;;;;;;9.19;92.58;98484.28;5108176;28;20043;-82
2023/01/13 07:36:08;;;;;;;1.10;0.43;;;;;;;9.15;92.54;98480.25;5106751;28;20062;-82
2023/01/13 07:38:37;;;;;;;1.10;0.50;;;;;;;9.21;93.22;98493.03;5107646;28;20055;-82
2023/01/13 07:43:30;;;;;;;1.95;0.50;;;;;;;9.19;93.55;98489.69;5108355;27;20134;-82
2023/01/13 07:44:05;;;;;;;1.75;0.65;;;;;;;9.20;94.30;98488.66;5107144;28;20079;-82
2023/01/13 07:46:31;;;;;;;1.40;0.60;;;;;;;9.19;94.41;98484.28;5108183;27;20060;-82
2023/01/13 07:48:58;;;;;;;2.05;0.50;;;;;;;9.15;94.87;98482.97;5108139;28;20050;-82
2023/01/13 07:51:24;;;;;;;0.15;0.15;;;;;;;9.15;94.75;98477.53;5105924;28;20047;-82
2023/01/13 07:53:51;;;;;;;4.43;0.55;;;;;;;9.18;95.45;98488.88;5098959;28;20678;-82
2023/01/13 07:56:19;;;;;;;0.98;0.55;;;;;;;9.09;95.27;98470.19;5107881;28;20050;-83
2023/01/13 07:58:49;;;;;;;1.35;0.40;;;;;;;9.04;93.95;98463.44;5108186;28;20047;-82
2023/01/13 08:01:18;;;;;;;1.58;0.40;;;;;;;9.12;94.59;98476.06;5099653;28;20241;-82
2023/01/13 08:03:45;;;;;;;0.30;0.20;;;;;;;9.13;95.00;98477.75;5107209;28;20052;-82
2023/01/13 08:06:12;;;;;;;1.05;0.82;;;;;;;9.12;96.34;98484.22;5107545;28;20475;-82
2023/01/13 08:08:39;;;;;;;1.05;0.52;;;;;;;8.96;94.52;98477.16;5107380;28;20127;-82
2023/01/13 08:11:07;;;;;;;1.27;0.50;;;;;;;9.08;94.93;98490.19;5107606;28;20054;-82
2023/01/13 08:13:35;;;;;;;2.72;0.50;;;;;;;9.08;98.14;98501.03;5107137;28;20050;-82
2023/01/13 08:16:05;;;;;;;0.47;0.38;;;;;;;9.08;100.00;98509.16;5107250;28;20475;-84
2023/01/13 08:18:35;;;;;;;1.55;0.88;;;;;;;8.91;100.00;98500.44;5104186;28;20071;-83
2023/01/13 08:21:03;;;;;;;0.50;0.50;;;;;;;9.02;100.00;98527.06;5106428;28;20054;-83
2023/01/13 08:23:30;;;;;;;1.25;0.63;;;;;;;8.79;100.00;98521.75;5098091;28;20044;-83
2023/01/13 08:26:02;;;;;;;0.90;0.50;;;;;;;8.76;100.00;98532.97;5093866;28;20054;-83
2023/01/13 08:28:29;;;;;;;3.00;0.88;;;;;;;8.57;100.00;98527.13;5093818;28;20059;-83
2023/01/13 08:30:59;;;;;;;1.77;0.60;;;;;;;8.48;100.00;98550.75;5091406;28;20502;-82
2023/01/13 08:33:26;;;;;;;4.30;0.60;;;;;;;8.33;100.00;98561.53;5089335;28;20136;-83
2023/01/13 08:35:55;;;;;;;2.70;0.82;;;;;;;8.30;100.00;98604.41;5093215;28;20407;-84
2023/01/13 08:38:22;;;;;;;2.75;0.60;;;;;;;8.03;100.00;98595.00;5092823;28;20497;-81
2023/01/13 08:40:52;;;;;;;5.63;1.20;;;;;;;7.72;100.00;98601.31;5080700;28;20047;-83
2023/01/13 08:43:18;;;;;;;4.50;0.45;;;;;;;7.43;100.00;98614.53;5084326;28;20470;-82
2023/01/13 08:45:45;;;;;;;1.85;0.85;;;;;;;7.37;100.00;98612.53;5093216;28;20084;-83
2023/01/13 08:48:12;;;;;;;1.75;0.35;;;;;;;7.21;100.00;98623.44;5094061;28;20040;-82
2023/01/13 08:50:46;;;;;;;1.90;0.60;;;;;;;7.14;100.00;98628.72;5092011;28;20079;-83
2023/01/13 08:53:14;;;;;;;0.93;0.30;;;;;;;7.07;100.00;98638.53;5092212;28;20044;-83
2023/01/13 08:55:47;;;;;;;1.38;0.55;;;;;;;7.01;100.00;98655.47;5093061;28;20136;-85
2023/01/13 08:58:17;;;;;;;2.28;0.57;;;;;;;6.95;100.00;98656.16;5093629;28;20198;-81
2023/01/13 09:00:44;;;;;;;1.17;0.70;;;;;;;7.11;100.00;98679.59;5093264;28;20459;-82
2023/01/13 09:03:15;;;;;;;3.75;0.60;;;;;;;7.04;100.00;98664.06;5081005;28;20048;-85
2023/01/13 09:05:42;;;;;;;0.88;0.30;;;;;;;6.91;100.00;98642.16;5087683;28;20044;-82
2023/01/13 09:08:09;;;;;;;1.45;0.40;;;;;;;7.04;100.00;98655.13;5092908;28;20056;-82
2023/01/13 09:10:39;;;;;;;2.05;0.73;;;;;;;7.05;100.00;98663.03;5091280;28;20131;-83
2023/01/13 09:13:14;;;;;;;;;;;;;;;7.06;100.00;98667.44;5092398;28;20052;-83
2023/01/13 09:15:42;;;;;;;1.20;0.40;;;;;;;6.96;100.00;98647.88;5092713;28;19927;-83
2023/01/13 09:18:09;;;;;;;3.40;1.10;;;;;;;7.04;100.00;98663.22;5086799;28;20052;-82
2023/01/13 09:20:36;;;;;;;0.30;0.30;;;;;;;7.03;100.00;98672.34;5091282;28;20047;-82
2023/01/13 09:23:03;;;;;;;1.95;0.70;;;;;;;7.17;100.00;98689.72;5090567;28;20062;-82
2023/01/13 09:25:30;;;;;;;1.38;0.47;;;;;;;7.07;100.00;98684.50;5091841;28;20047;-82
2023/01/13 09:27:58;;;;;;;1.00;0.50;;;;;;;7.15;100.00;98683.63;5092369;28;20044;-82
2023/01/13 09:30:25;;;;;;;0.70;0.50;;;;;;;7.26;100.00;98694.06;5092572;28;20048;-83
2023/01/13 09:34:58;;;;;;;0.30;0.30;;;;;;;7.18;100.00;98678.72;5086125;28;20086;-84
2023/01/13 09:35:37;;;;;;;1.73;0.50;;;;;;;7.35;100.00;98692.19;5085450;28;20486;-83
2023/01/13 09:38:07;;;;;;;7.95;1.35;;;;;;;7.37;100.00;98696.38;5092093;28;20121;-83
2023/01/13 09:40:34;;;;;;;1.38;0.63;;;;;;;7.30;100.00;98694.53;5092797;28;20056;-83
2023/01/13 09:46:01;;;;;;;1.42;0.68;;;;;;;7.32;100.00;98698.78;5092167;28;20058;-82
2023/01/13 09:48:34;;;;;;;3.78;0.80;;;;;;;7.49;100.00;98696.00;5090848;28;20040;-83
2023/01/13 09:51:23;;;;;;;3.45;0.47;;;;;;;7.47;100.00;98695.31;5091736;28;20059;-82
2023/01/13 09:53:55;;;;;;;0.85;0.70;;;;;;;7.33;100.00;98681.53;5091551;28;20483;-82
2023/01/13 09:56:22;;;;;;;3.08;0.77;;;;;;;7.52;100.00;98709.16;5091984;28;20109;-83
2023/01/13 09:58:50;;;;;;;2.22;0.70;;;;;;;7.50;100.00;98711.19;5083549;28;20403;-82
2023/01/13 10:01:25;;;;;;;0.50;0.47;;;;;;;7.47;100.00;98700.72;5087674;28;20143;-82
2023/01/13 10:03:51;;;;;;;2.58;0.63;;;;;;;7.59;100.00;98702.88;5087018;28;20055;-83
2023/01/13 10:06:21;;;;;;;1.23;0.73;;;;;;;7.65;100.00;98705.88;5091721;28;20055;-82
2023/01/13 10:08:49;;;;;;;1.90;0.93;;;;;;;7.57;100.00;98704.91;5088477;28;20529;-83
2023/01/13 10:14:13;;;;;;;5.63;0.93;;;;;;;7.69;100.00;98701.78;5090974;28;20047;-82
2023/01/13 10:16:45;;;;;;;3.58;0.55;;;;;;;7.72;100.00;98706.84;5091191;28;20048;-83
2023/01/13 10:19:17;;;;;;;2.67;0.88;;;;;;;7.74;100.00;98702.97;5077685;28;20044;-82
2023/01/13 10:22:09;;;;;;;1.35;0.70;;;;;;;7.89;100.00;98711.16;5086555;28;20044;-84
2023/01/13 10:24:56;;;;;;;7.28;0.65;;;;;;;7.82;100.00;98710.19;5071145;28;20480;-83
2023/01/13 10:27:30;;;;;;;3.42;0.75;;;;;;;7.80;100.00;98690.59;5071160;28;20045;-82
2023/01/13 10:29:58;;;;;;;4.43;0.80;;;;;;;7.75;100.00;98685.72;5082091;28;20074;-82
2023/01/13 10:32:25;;;;;;;4.75;0.80;;;;;;;7.82;100.00;98683.13;5082179;28;20051;-81
2023/01/13 10:34:55;;;;;;;1.30;0.73;;;;;;;8.00;100.00;98690.13;5083568;28;20055;-82
2023/01/13 10:37:24;;;;;;;4.22;0.70;;;;;;;7.85;100.00;98677.34;5090100;28;20407;-83
2023/01/13 10:39:55;;;;;;;3.60;0.97;;;;;;;7.84;100.00;98669.41;5091520;28;20113;-82
2023/01/13 10:42:24;;;;;;;5.50;0.93;;;;;;;7.80;100.00;98674.34;5088138;28;20054;-82
2023/01/13 10:44:52;;;;;;;1.95;0.60;;;;;;;7.88;100.00;98682.41;5090497;28;20247;-82
2023/01/13 10:47:27;;;;;;;4.03;1.00;;;;;;;7.89;100.00;98677.81;5090863;28;20051;-82
2023/01/13 10:50:21;;;;;;;3.80;1.17;;;;;;;7.95;100.00;98706.91;5089397;28;20055;-81
2023/01/13 10:53:00;;;;;;;6.75;1.08;;;;;;;7.93;100.00;98723.31;5077171;28;20414;-82
2023/01/13 10:55:30;;;;;;;5.93;0.82;;;;;;;7.86;100.00;98727.75;5091139;28;20059;-82
2023/01/13 10:57:57;;;;;;;5.13;1.38;;;;;;;7.70;100.00;98725.13;5088990;28;20052;-82
2023/01/13 11:00:29;;;;;;;3.85;1.27;;;;;;;7.57;100.00;98723.84;5090785;28;20046;-82
2023/01/13 11:03:26;;;;;;;5.00;1.13;;;;;;;7.73;100.00;98743.72;5090082;28;20051;-82
2023/01/13 11:05:56;;;;;;;3.13;0.88;;;;;;;7.56;100.00;98719.44;5084860;28;20078;-82
2023/01/13 11:08:25;;;;;;;5.18;1.20;;;;;;;7.54;100.00;98705.28;5082015;28;20149;-82
2023/01/13 11:10:53;;;;;;;6.97;1.20;;;;;;;7.57;100.00;98714.88;5088788;28;20491;-83
2023/01/13 11:13:31;;;;;;;1.00;0.70;;;;;;;7.54;100.00;98704.41;5086777;28;20848;-84
2023/01/13 11:16:03;;;;;;;3.13;0.90;;;;;;;7.75;100.00;98733.56;5090522;28;20543;-84
2023/01/13 11:18:42;;;;;;;3.90;0.85;;;;;;;7.61;100.00;98727.88;5090655;28;20048;-81
2023/01/13 11:21:17;;;;;;;2.27;0.80;;;;;;;7.58;100.00;98724.69;5086398;28;20087;-82
2023/01/13 11:23:49;;;;;;;4.00;1.25;;;;;;;7.52;100.00;98725.41;5084557;28;20123;-83
2023/01/13 11:26:21;;;;;;;4.68;1.10;;;;;;;7.51;100.00;98727.28;5087072;28;20135;-83
2023/01/13 11:28:57;;;;;;;3.58;1.00;;;;;;;7.44;100.00;98708.19;5088387;28;20048;-83
2023/01/13 11:31:30;;;;;;;8.38;0.95;;;;;;;7.53;100.00;98721.69;5070989;28;20052;-83
2023/01/13 11:34:03;;;;;;;5.00;1.50;;;;;;;7.48;100.00;98715.94;5080137;28;20067;-83
2023/01/13 11:36:38;;;;;;;3.95;1.05;;;;;;;7.60;100.00;98750.56;5090977;28;20052;-83
2023/01/13 11:39:18;;;;;;;4.97;1.15;;;;;;;7.54;100.00;98734.16;5089257;28;20411;-83
2023/01/13 11:42:19;;;;;;;6.35;1.73;;;;;;;7.58;100.00;98747.16;5084827;28;20044;-83
2023/01/13 11:44:41;;;;;;;5.65;2.42;;;;;;;7.59;100.00;98737.19;5083869;28;20040;-83
2023/01/13 11:47:10;;;;;;;2.85;1.50;;;;;;;7.47;100.00;98733.19;5090713;28;20233;-83
2023/01/13 11:49:38;;;;;;;2.53;0.88;;;;;;;7.48;100.00;98738.41;5090150;28;20052;-83
2023/01/13 11:52:16;;;;;;;4.10;1.17;;;;;;;7.44;100.00;98735.22;5089781;28;20044;-83
2023/01/13 11:55:01;;;;;;;8.00;1.08;;;;;;;7.55;100.00;98733.16;5089517;28;20116;-83
2023/01/13 11:57:52;;;;;;;4.68;1.58;;;;;;;7.70;100.00;98752.19;5082531;28;20044;-83
2023/01/13 12:00:32;;;;;;;1.77;0.82;;;;;;;7.80;100.00;98753.66;5094327;28;20407;-83
2023/01/13 12:03:22;;;;;;;2.63;1.20;;;;;;;7.83;100.00;98744.34;5093596;28;20040;-83
2023/01/13 12:06:02;;;;;;;8.20;1.23;;;;;;;7.78;100.00;98725.94;5094589;28;20054;-83
2023/01/13 12:08:50;;;;;;;1.38;0.82;;;;;;;7.93;100.00;98711.63;5091593;28;20048;-84
2023/01/13 12:11:27;;;;;;;8.48;1.40;;;;;;;8.19;100.00;98730.25;5092086;28;20050;-84
2023/01/13 12:14:18;;;;;;;6.90;1.73;;;;;;;8.12;100.00;98713.03;5093094;28;20513;-84
2023/01/13 12:16:49;;;;;;;9.25;1.10;;;;;;;8.26;100.00;98704.09;5093384;28;20127;-83
2023/01/13 12:19:24;;;;;;;5.95;1.40;;;;;;;8.43;100.00;98702.13;5094206;28;20159;-83
2023/01/13 12:22:11;;;;;;;3.50;0.52;;;;;;;8.40;100.00;98716.03;5093431;28;21011;-82
2023/01/13 12:24:45;;;;;;;3.50;1.27;;;;;;;8.41;100.00;98731.25;5086164;28;20445;-83
2023/01/13 12:27:19;;;;;;;8.35;1.42;;;;;;;8.22;100.00;98729.91;5085078;28;20159;-83
2023/01/13 12:29:48;;;;;;;4.13;1.50;;;;;;;8.10;100.00;98734.00;5088536;28;20055;-84
2023/01/13 12:32:19;;;;;;;4.43;1.40;;;;;;;8.07;100.00;98735.25;5092915;28;20139;-83
2023/01/13 12:35:06;;;;;;;4.57;1.02;;;;;;;7.92;100.00;98751.41;5093891;28;20052;-84
2023/01/13 12:37:41;;;;;;;3.80;1.63;;;;;;;7.84;100.00;98769.53;5093797;28;20511;-83
2023/01/13 12:40:32;;;;;;;8.60;1.17;;;;;;;7.72;100.00;98783.47;5093680;28;20415;-84
2023/01/13 12:45:51;;;;;;;3.70;0.80;;;;;;;7.49;100.00;98799.59;5093271;28;20058;-84
2023/01/13 12:48:48;;;;;;;3.72;0.88;;;;;;;7.39;100.00;98788.13;5093520;28;20071;-84
2023/01/13 12:51:25;;;;;;;8.73;1.42;;;;;;;7.23;100.00;98779.06;5093932;28;20661;-84
2023/01/13 12:53:55;;;;;;;3.08;1.08;;;;;;;7.11;100.00;98779.63;5092560;28;20139;-84
2023/01/13 12:56:43;;;;;;;2.20;0.73;;;;;;;7.03;100.00;98794.81;5093018;28;20084;-85
2023/01/13 12:59:36;;;;;;;2.42;1.15;;;;;;;6.90;100.00;98806.16;5091659;28;20052;-83
2023/01/13 13:02:30;;;;;;;3.65;0.80;;;;;;;6.79;100.00;98808.34;5086226;28;20423;-82
2023/01/13 13:05:00;;;;;;;3.80;0.73;;;;;;;6.78;100.00;98807.50;5093325;28;20064;-81
2023/01/13 13:07:38;;;;;;;1.25;0.68;;;;;;;6.77;100.00;98794.16;5093581;28;20050;-81
2023/01/13 13:10:18;;;;;;;5.30;0.93;;;;;;;6.78;100.00;98787.75;5092729;28;20056;-81
2023/01/13 13:15:44;;;;;;;1.58;0.63;;;;;;;7.26;100.00;98794.94;5087639;28;20051;-81
2023/01/13 13:18:27;;;;;;;1.67;0.60;;;;;;;7.27;100.00;98795.78;5092837;28;20055;-82
2023/01/13 13:21:09;;;;;;;4.90;0.85;;;;;;;7.33;100.00;98791.53;5092227;28;20517;-81
2023/01/13 13:24:04;;;;;;;7.40;1.58;;;;;;;7.47;100.00;98789.97;5090367;28;20054;-81
2023/01/13 13:26:41;;;;;;;2.42;0.90;;;;;;;7.58;100.00;98795.03;5050797;28;20123;-81
2023/01/13 13:29:35;;;;;;;6.20;1.10;;;;;;;7.67;100.00;98793.13;5083492;28;20105;-81
2023/01/13 13:32:36;;;;;;;3.40;1.10;;;;;;;7.68;100.00;98802.91;5090847;28;20455;-82
2023/01/13 13:35:24;;;;;;;8.82;1.52;;;;;;;7.91;100.00;98809.25;5092368;28;20059;-81
2023/01/13 13:49:12;;;;;;;5.72;1.77;;;;;;;8.09;100.00;98791.91;5091794;28;20063;-81
2023/01/13 13:51:45;;;;;;;6.65;1.92;;;;;;;8.09;100.00;98810.88;5075793;28;20399;-81
2023/01/13 13:54:14;;;;;;;2.72;0.80;;;;;;;7.75;92.37;98804.78;5086675;28;20052;-80
2023/01/13 13:56:45;;;;;;;2.80;0.70;;;;;;;7.66;92.37;98813.09;5087527;28;20040;-80
2023/01/13 13:59:16;;;;;;;9.73;1.52;;;;;;;7.59;96.10;98853.53;5088481;28;20143;-83
2023/01/13 14:01:45;;;;;;;7.63;1.35;;;;;;;7.36;100.00;98839.88;5086697;28;20595;-81
2023/01/13 14:04:17;;;;;;;4.40;1.17;;;;;;;7.16;100.00;98823.19;5088252;28;20047;-80
2023/01/13 14:06:53;;;;;;;8.77;1.40;;;;;;;6.96;100.00;98826.25;5089084;28;20087;-81
2023/01/13 14:09:21;;;;;;;7.65;1.58;;;;;;;7.12;100.00;98863.25;5089316;28;20052;-81
2023/01/13 14:12:00;;;;;;;7.78;1.45;;;;;;;6.95;100.00;98845.34;5083884;28;20131;-82
2023/01/13 14:14:28;;;;;;;4.35;1.48;;;;;;;6.82;100.00;98853.94;5080884;28;20048;-82
2023/01/13 14:16:56;;;;;;;6.90;1.40;;;;;;;6.75;100.00;98869.16;5089770;28;20414;-82
2023/01/13 14:19:29;;;;;;;6.13;1.65;;;;;;;6.79;100.00;98890.25;5084166;28;20093;-81
2023/01/13 14:21:56;;;;;;;5.45;1.60;;;;;;;6.79;100.00;98894.81;5088397;28;20105;-82
2023/01/13 14:24:23;;;;;;;4.97;1.35;;;;;;;6.93;100.00;98883.34;5086763;28;20051;-81
2023/01/13 14:26:52;;;;;;;9.27;1.52;;;;;;;7.00;100.00;98872.69;5087643;28;20094;-82
2023/01/13 14:29:21;;;;;;;10.80;2.30;;;;;;;7.00;100.00;98886.19;5088960;28;20445;-82
2023/01/13 14:31:51;;;;;;;6.82;1.50;;;;;;;7.08;100.00;98878.09;5088774;28;20056;-81
2023/01/13 14:34:20;;;;;;;3.45;1.20;;;;;;;7.19;100.00;98868.81;5086318;28;20040;-81
2023/01/13 14:36:49;;;;;;;3.23;0.80;;;;;;;7.30;100.00;98882.00;5088459;28;20044;-82
2023/01/13 14:39:41;;;;;;;6.63;1.67;;;;;;;7.15;100.00;98859.34;5087652;28;20078;-82
2023/01/13 14:42:12;;;;;;;4.95;1.25;;;;;;;7.26;100.00;98869.81;5068742;28;20048;-82
2023/01/13 14:44:45;;;;;;;6.10;1.60;;;;;;;7.36;100.00;98867.78;5089035;28;20190;-82
2023/01/13 14:47:21;;;;;;;8.27;1.27;;;;;;;7.30;100.00;98868.47;5088930;28;20503;-81
2023/01/13 14:50:07;;;;;;;8.82;2.03;;;;;;;7.44;100.00;98897.50;5082695;28;20048;-82
2023/01/13 14:52:35;;;;;;;2.67;1.15;;;;;;;7.47;100.00;98890.91;5088077;28;20095;-82
2023/01/13 14:55:22;;;;;;;4.03;0.90;;;;;;;7.44;100.00;98904.78;5088823;28;20560;-82
2023/01/13 14:57:49;;;;;;;5.18;1.08;;;;;;;7.42;100.00;98910.38;5088781;28;20055;-82
2023/01/13 15:00:22;;;;;;;4.75;1.58;;;;;;;7.47;100.00;98911.69;5088912;28;20059;-81
2023/01/13 15:03:01;;;;;;;4.22;1.13;;;;;;;7.24;100.00;98888.06;5088432;28;20032;-82
2023/01/13 15:05:36;;;;;;;3.47;1.33;;;;;;;7.12;100.00;98882.16;5084606;28;20463;-81
2023/01/13 15:08:08;;;;;;;6.95;1.30;;;;;;;7.17;100.00;98896.00;5088710;28;20076;-81
2023/01/13 15:10:37;;;;;;;7.35;1.52;;;;;;;7.19;100.00;98906.66;5088854;28;20399;-81
2023/01/13 15:13:06;;;;;;;6.57;1.00;;;;;;;7.13;100.00;98920.84;5087631;28;20060;-81
2023/01/13 15:15:34;;;;;;;3.60;0.93;;;;;;;7.14;100.00;98907.16;5088461;28;20056;-82
2023/01/13 15:18:11;;;;;;;7.30;1.48;;;;;;;7.06;100.00;98908.00;5087330;28;20127;-81
2023/01/13 15:20:39;;;;;;;6.75;2.08;;;;;;;7.13;100.00;98923.56;5081961;28;20122;-81
2023/01/13 15:23:05;;;;;;;7.07;1.63;;;;;;;7.07;100.00;98941.28;5087678;28;20044;-80
2023/01/13 15:25:32;;;;;;;5.40;1.27;;;;;;;6.87;100.00;98909.16;5087971;28;20052;-80
2023/01/13 15:27:59;;;;;;;2.70;1.35;;;;;;;6.91;99.63;98944.84;5087428;28;20080;-81
2023/01/13 15:30:27;;;;;;;2.20;1.20;;;;;;;6.82;100.00;98921.47;5083088;28;20044;-81
2023/01/13 15:32:55;;;;;;;7.35;1.85;;;;;;;6.89;100.00;98936.91;5084281;28;20060;-80
2023/01/13 15:35:24;;;;;;;5.10;1.20;;;;;;;6.88;100.00;98964.06;5078877;28;20317;-81
2023/01/13 15:37:52;;;;;;;4.32;1.80;;;;;;;6.68;100.00;98964.34;5085183;28;20059;-80
2023/01/13 15:40:21;;;;;;;5.00;2.28;;;;;;;6.57;100.00;98942.22;5083760;28;20044;-80
2023/01/13 15:48:21;;;;;;;6.75;2.00;;;;;;;6.50;100.00;98975.28;5083964;28;20087;-80
2023/01/13 15:50:50;;;;;;;10.15;2.22;;;;;;;6.44;100.00;98951.63;5082960;28;20119;-80
2023/01/13 15:53:16;;;;;;;5.32;1.60;;;;;;;6.39;100.00;98959.38;5088938;28;20047;-81
2023/01/13 15:55:46;;;;;;;5.70;2.47;;;;;;;6.42;100.00;98969.00;5084488;28;20040;-80
2023/01/13 15:58:14;;;;;;;4.22;2.22;;;;;;;6.33;100.00;98971.66;5091063;28;20488;-81
2023/01/13 16:00:41;;;;;;;7.35;2.47;;;;;;;6.38;100.00;98969.34;5089422;28;20044;-80
2023/01/13 16:03:12;;;;;;;6.93;2.13;;;;;;;6.36;100.00;98968.63;5087638;28;20439;-81
2023/01/13 16:05:38;;;;;;;10.05;3.13;;;;;;;6.42;100.00;99001.41;5084603;28;20054;-80
2023/01/13 16:08:13;;;;;;;4.38;2.20;;;;;;;6.30;100.00;98982.78;5080526;28;20401;-80
2023/01/13 16:10:39;;;;;;;10.02;3.00;;;;;;;6.21;100.00;98983.75;5085042;28;20075;-80
2023/01/13 16:13:06;;;;;;;4.95;2.40;;;;;;;6.21;100.00;98997.25;5084971;28;20048;-80
2023/01/13 16:15:33;;;;;;;5.97;1.98;;;;;;;6.07;100.00;98974.44;5086468;28;20051;-80
2023/01/13 16:18:02;;;;;;;3.42;1.83;;;;;;;6.20;100.00;99004.53;5089015;28;20075;-80
2023/01/13 16:20:29;;;;;;;6.07;2.17;;;;;;;6.05;100.00;98976.41;5076873;28;20829;-81
2023/01/13 16:22:56;;;;;;;6.35;2.03;;;;;;;6.14;100.00;99004.31;5087000;28;20079;-81
2023/01/13 16:25:25;;;;;;;6.57;2.00;;;;;;;5.90;100.00;98983.38;5083439;28;20048;-81
2023/01/13 16:27:53;;;;;;;6.65;2.10;;;;;;;5.98;100.00;98994.28;5088250;28;20055;-81
2023/01/13 16:30:25;;;;;;;3.03;1.27;;;;;;;5.87;100.00;98984.53;5088582;28;20048;-81
2023/01/13 16:32:51;;;;;;;3.80;2.65;;;;;;;5.85;100.00;98991.97;5089794;28;20052;-80
2023/01/13 16:35:18;;;;;;;4.32;1.65;;;;;;;5.92;100.00;99020.00;5090023;28;20134;-80
2023/01/13 16:37:47;;;;;;;2.88;1.30;;;;;;;5.83;100.00;99010.16;5091316;28;20052;-81
2023/01/13 16:40:23;;;;;;;4.90;1.02;;;;;;;5.78;100.00;98999.84;5091575;28;20048;-81
2023/01/13 16:42:52;;;;;;;9.65;1.50;;;;;;;5.81;100.00;99029.22;5090177;28;20079;-81
2023/01/13 16:45:19;;;;;;;5.30;1.35;;;;;;;5.75;100.00;99029.84;5081714;28;20586;-81
2023/01/13 16:47:46;;;;;;;9.48;2.08;;;;;;;5.62;100.00;99010.53;5089215;28;20344;-81
2023/01/13 16:50:24;;;;;;;5.38;1.05;;;;;;;5.70;100.00;99039.41;5089786;28;20050;-81
2023/01/13 16:52:50;;;;;;;4.45;1.40;;;;;;;5.47;100.00;99008.38;5090467;28;20163;-81
2023/01/13 16:55:17;;;;;;;9.00;1.48;;;;;;;5.54;100.00;99016.72;5091238;28;20054;-81
2023/01/13 16:57:44;;;;;;;15.35;2.58;;;;;;;5.54;100.00;99029.31;5090832;28;20050;-81
2023/01/13 17:00:13;;;;;;;4.68;1.75;;;;;;;5.46;100.00;99046.28;5088956;28;20051;-81
2023/01/13 17:02:40;;;;;;;10.07;1.85;;;;;;;5.36;100.00;99032.03;5089948;28;20127;-82
2023/01/13 17:05:10;;;;;;;5.63;1.75;;;;;;;5.53;100.00;99070.78;5088437;28;20060;-81
2023/01/13 17:07:36;;;;;;;4.07;2.10;;;;;;;5.41;100.00;99060.22;5084423;28;20054;-81
2023/01/13 17:10:04;;;;;;;3.78;2.15;;;;;;;5.49;100.00;99071.09;5091119;28;20131;-82
2023/01/13 17:12:30;;;;;;;8.52;2.42;;;;;;;5.39;100.00;99054.16;5089697;28;20495;-81
2023/01/13 17:15:16;;;;;;;;;;;;;;;;;;;;;
2023/01/13 17:17:56;;;;;;;10.82;3.30;;;;;;;5.46;100.00;99092.13;5099129;28;20044;-81
2023/01/13 17:20:30;;;;;;;14.15;3.67;;;;;;;5.42;100.00;99094.28;5079378;28;20051;-81
